createdAt,value
2022-10-01T00:00:32.074Z,11.13
2022-10-01T00:05:33.629Z,9.95
2022-10-01T00:10:39.992Z,11.20
2022-10-01T00:15:42.055Z,11.57
2022-10-01T00:20:43.945Z,11.00
2022-10-01T00:25:45.476Z,8.45
2022-10-01T00:30:48.021Z,15.00
2022-10-01T00:35:53.545Z,9.65
2022-10-01T00:40:55.562Z,10.73
2022-10-01T00:46:02.664Z,10.07
2022-10-01T00:51:06.519Z,10.45
2022-10-01T00:56:08.148Z,8.65
2022-10-01T01:01:09.818Z,11.80
2022-10-01T01:06:11.422Z,8.75
2022-10-01T01:11:40.179Z,10.75
2022-10-01T01:17:08.532Z,11.00
2022-10-01T01:22:13.473Z,8.18
2022-10-01T01:28:03.319Z,9.35
2022-10-01T01:33:18.126Z,7.63
2022-10-01T01:38:24.477Z,6.97
2022-10-01T01:43:31.290Z,8.60
2022-10-01T01:48:36.507Z,8.43
2022-10-01T01:53:39.003Z,8.32
2022-10-01T01:58:40.739Z,11.93
2022-10-01T02:03:42.272Z,8.30
2022-10-01T02:08:52.095Z,6.80
2022-10-01T02:14:05.736Z,9.40
2022-10-01T02:19:24.590Z,6.65
2022-10-01T02:24:47.529Z,7.60
2022-10-01T02:29:50.928Z,7.57
2022-10-01T02:34:54.003Z,8.23
2022-10-01T02:39:57.777Z,7.28
2022-10-01T02:45:03.461Z,7.75
2022-10-01T02:50:07.565Z,6.15
2022-10-01T02:55:20.288Z,9.32
2022-10-01T03:00:21.859Z,8.52
2022-10-01T03:05:24.124Z,7.65
2022-10-01T03:10:25.716Z,6.63
2022-10-01T03:15:28.619Z,8.10
2022-10-01T03:20:30.221Z,7.85
2022-10-01T03:25:32.017Z,10.02
2022-10-01T03:30:34.349Z,6.07
2022-10-01T03:35:35.876Z,7.15
2022-10-01T03:40:39.015Z,5.15
2022-10-01T03:45:40.592Z,4.68
2022-10-01T03:50:42.152Z,6.00
2022-10-01T03:55:43.662Z,5.00
2022-10-01T04:00:47.154Z,4.43
2022-10-01T04:05:48.726Z,4.93
2022-10-01T04:10:50.823Z,2.67
2022-10-01T04:15:52.578Z,3.25
2022-10-01T04:20:54.192Z,4.53
2022-10-01T04:25:59.258Z,4.18
2022-10-01T04:31:19.568Z,4.43
2022-10-01T04:36:22.037Z,2.90
2022-10-01T04:41:23.915Z,4.50
2022-10-01T04:46:25.537Z,3.13
2022-10-01T04:51:27.165Z,2.15
2022-10-01T04:56:28.668Z,3.50
2022-10-01T05:01:32.035Z,3.92
2022-10-01T05:06:34.057Z,4.30
2022-10-01T05:11:36.129Z,3.97
2022-10-01T05:16:37.970Z,4.15
2022-10-01T05:21:39.582Z,5.32
2022-10-01T05:26:41.184Z,3.47
2022-10-01T05:31:44.369Z,4.32
2022-10-01T05:36:46.025Z,4.47
2022-10-01T05:41:47.553Z,3.47
2022-10-01T05:46:49.166Z,4.68
2022-10-01T05:51:50.839Z,3.42
2022-10-01T05:56:53.513Z,4.57
2022-10-01T06:01:55.083Z,3.50
2022-10-01T06:06:56.762Z,5.28
2022-10-01T06:11:58.437Z,3.67
2022-10-01T06:16:59.931Z,5.07
2022-10-01T06:22:01.412Z,2.67
2022-10-01T06:27:02.935Z,4.32
2022-10-01T06:32:04.494Z,3.70
2022-10-01T06:37:06.065Z,3.22
2022-10-01T06:42:09.979Z,2.67
2022-10-01T06:47:11.512Z,2.88
2022-10-01T06:52:31.602Z,2.80
2022-10-01T07:02:36.280Z,2.58
2022-10-01T07:07:41.225Z,3.97
2022-10-01T07:12:42.754Z,5.80
2022-10-01T07:17:46.354Z,3.50
2022-10-01T07:22:48.928Z,2.72
2022-10-01T07:27:54.256Z,3.15
2022-10-01T07:32:55.861Z,2.38
2022-10-01T07:37:57.398Z,2.97
2022-10-01T07:42:59.000Z,4.47
2022-10-01T07:48:02.537Z,6.70
2022-10-01T07:53:04.661Z,2.30
2022-10-01T07:58:06.223Z,5.07
2022-10-01T08:03:12.070Z,2.80
2022-10-01T08:08:13.633Z,2.75
2022-10-01T08:13:17.613Z,5.15
2022-10-01T08:18:23.204Z,2.58
2022-10-01T08:23:24.883Z,3.10
2022-10-01T08:28:26.493Z,5.05
2022-10-01T08:33:28.042Z,3.60
2022-10-01T08:38:29.576Z,3.08
2022-10-01T08:43:31.083Z,3.55
2022-10-01T08:48:38.731Z,5.20
2022-10-01T08:53:45.525Z,5.88
2022-10-01T08:58:56.391Z,3.08
2022-10-01T09:03:59.415Z,3.10
2022-10-01T09:09:26.373Z,4.20
2022-10-01T09:14:37.078Z,5.47
2022-10-01T09:20:00.403Z,3.90
2022-10-01T09:25:22.271Z,3.28
2022-10-01T09:30:25.201Z,3.63
2022-10-01T09:35:56.620Z,2.72
2022-10-01T09:40:59.187Z,3.17
2022-10-01T09:46:03.180Z,2.60
2022-10-01T09:51:22.212Z,3.08
2022-10-01T09:56:29.612Z,2.20
2022-10-01T10:01:45.829Z,2.20
2022-10-01T10:06:47.999Z,3.17
2022-10-01T10:11:49.563Z,3.30
2022-10-01T10:16:51.165Z,1.90
2022-10-01T10:21:57.010Z,1.73
2022-10-01T10:27:01.560Z,2.13
2022-10-01T10:32:11.268Z,2.08
2022-10-01T10:37:16.976Z,1.23
2022-10-01T10:42:19.798Z,3.10
2022-10-01T10:47:22.890Z,3.50
2022-10-01T10:52:36.674Z,2.97
2022-10-01T10:57:38.347Z,2.25
2022-10-01T11:02:48.416Z,2.22
2022-10-01T11:13:18.544Z,2.03
2022-10-01T11:18:44.565Z,1.58
2022-10-01T11:24:22.365Z,1.27
2022-10-01T11:29:46.994Z,0.77
2022-10-01T11:35:26.138Z,1.10
2022-10-01T11:40:35.898Z,1.07
2022-10-01T11:45:45.835Z,0.63
2022-10-01T11:50:49.612Z,0.95
2022-10-01T11:56:16.436Z,0.50
2022-10-01T12:01:23.706Z,1.75
2022-10-01T12:06:33.887Z,1.45
2022-10-01T12:11:52.638Z,3.58
2022-10-01T12:17:18.024Z,1.00
2022-10-01T12:22:39.491Z,1.20
2022-10-01T12:27:54.662Z,1.50
2022-10-01T12:33:08.087Z,0.90
2022-10-01T12:38:15.475Z,0.50
2022-10-01T12:43:29.529Z,2.58
2022-10-01T12:48:39.961Z,1.30
2022-10-01T12:53:47.465Z,1.08
2022-10-01T12:59:13.721Z,1.95
2022-10-01T13:04:30.611Z,0.70
2022-10-01T13:09:50.139Z,0.70
2022-10-01T13:14:53.611Z,1.85
2022-10-01T13:20:05.220Z,1.55
2022-10-01T13:25:30.701Z,1.05
2022-10-01T13:30:45.163Z,0.60
2022-10-01T13:35:58.531Z,0.57
2022-10-01T13:41:03.730Z,1.65
2022-10-01T13:46:10.685Z,1.17
2022-10-01T13:51:14.705Z,0.80
2022-10-01T13:56:32.455Z,1.35
2022-10-01T14:01:39.958Z,1.13
2022-10-01T14:06:49.919Z,1.08
2022-10-01T14:17:15.509Z,2.30
2022-10-01T14:22:40.720Z,2.35
2022-10-01T14:27:42.191Z,3.00
2022-10-01T14:33:07.956Z,5.43
2022-10-01T14:38:20.649Z,26.92
2022-10-01T14:43:30.827Z,4.78
2022-10-01T14:48:35.043Z,7.38
2022-10-01T14:53:42.577Z,5.60
2022-10-01T14:58:47.563Z,10.95
2022-10-01T15:03:50.675Z,1.30
2022-10-01T15:08:54.854Z,1.52
2022-10-01T15:14:06.943Z,2.40
2022-10-01T15:19:21.004Z,3.38
2022-10-01T15:24:44.239Z,1.70
2022-10-01T15:29:46.819Z,7.05
2022-10-01T15:34:52.373Z,5.57
2022-10-01T15:39:54.437Z,1.23
2022-10-01T15:45:08.043Z,1.65
2022-10-01T15:50:09.540Z,2.30
2022-10-01T15:55:15.523Z,2.55
2022-10-01T16:00:22.501Z,2.28
2022-10-01T16:05:35.964Z,4.70
2022-10-01T16:10:40.829Z,1.27
2022-10-01T16:15:42.361Z,5.22
2022-10-01T16:20:46.724Z,2.10
2022-10-01T16:25:50.595Z,1.33
2022-10-01T16:30:52.205Z,8.30
2022-10-01T16:36:08.308Z,6.35
2022-10-01T16:41:13.858Z,2.55
2022-10-01T16:46:15.561Z,4.72
2022-10-01T16:51:18.029Z,6.13
2022-10-01T16:56:23.572Z,4.75
2022-10-01T17:01:28.911Z,2.17
2022-10-01T17:06:30.454Z,2.67
2022-10-01T17:11:32.217Z,2.45
2022-10-01T17:16:34.473Z,4.28
2022-10-01T17:21:36.592Z,2.83
2022-10-01T17:26:43.172Z,3.55
2022-10-01T17:31:46.608Z,4.38
2022-10-01T17:36:48.432Z,4.70
2022-10-01T17:41:49.932Z,6.20
2022-10-01T17:46:51.470Z,6.13
2022-10-01T17:51:53.446Z,5.53
2022-10-01T17:56:55.327Z,6.10
2022-10-01T18:01:57.268Z,6.53
2022-10-01T18:06:59.819Z,7.13
2022-10-01T18:12:02.258Z,6.85
2022-10-01T18:17:04.085Z,8.25
2022-10-01T18:22:13.711Z,6.00
2022-10-01T18:27:15.738Z,6.03
2022-10-01T18:32:27.280Z,5.63
2022-10-01T18:37:46.697Z,6.35
2022-10-01T18:43:06.338Z,3.70
2022-10-01T18:48:45.046Z,6.55
2022-10-01T18:54:04.335Z,8.07
2022-10-01T18:59:24.758Z,5.07
2022-10-01T19:04:35.307Z,5.70
2022-10-01T19:09:43.811Z,11.77
2022-10-01T19:14:55.880Z,18.48
2022-10-01T19:20:06.628Z,7.55
2022-10-01T19:25:26.164Z,5.32
2022-10-01T19:30:38.454Z,4.38
2022-10-01T19:35:44.269Z,6.20
2022-10-01T19:41:08.854Z,8.88
2022-10-01T19:46:26.543Z,9.20
2022-10-01T19:51:38.776Z,7.10
2022-10-01T19:56:41.872Z,11.77
2022-10-01T20:01:49.328Z,17.40
2022-10-01T20:06:57.543Z,10.52
2022-10-01T20:12:15.763Z,8.60
2022-10-01T20:17:30.500Z,5.25
2022-10-01T20:22:47.130Z,7.45
2022-10-01T20:28:10.462Z,13.38
2022-10-01T20:33:25.709Z,14.40
2022-10-01T20:39:03.956Z,8.45
2022-10-01T20:44:09.763Z,8.60
2022-10-01T20:49:27.967Z,8.25
2022-10-01T20:54:36.677Z,11.88
2022-10-01T20:59:48.968Z,10.00
2022-10-01T21:05:15.080Z,10.52
2022-10-01T21:10:44.822Z,8.13
2022-10-01T21:16:15.467Z,5.40
2022-10-01T21:21:29.397Z,4.75
2022-10-01T21:26:46.241Z,6.82
2022-10-01T21:32:02.737Z,5.15
2022-10-01T21:37:14.037Z,5.30
2022-10-01T21:42:22.181Z,7.70
2022-10-01T21:47:38.992Z,4.70
2022-10-01T21:52:59.549Z,6.40
2022-10-01T21:58:07.390Z,5.95
2022-10-01T22:03:08.874Z,11.43
2022-10-01T22:08:29.020Z,9.60
2022-10-01T22:13:36.668Z,8.50
2022-10-01T22:18:57.891Z,6.45
2022-10-01T22:24:05.960Z,6.72
2022-10-01T22:29:14.739Z,6.57
2022-10-01T22:34:22.389Z,7.45
2022-10-01T22:39:34.297Z,7.25
2022-10-01T22:44:35.904Z,7.43
2022-10-01T22:49:49.315Z,7.80
2022-10-01T22:55:09.164Z,5.47
2022-10-01T23:00:14.380Z,7.03
2022-10-01T23:05:38.091Z,7.35
2022-10-01T23:10:45.717Z,8.57
2022-10-01T23:16:24.810Z,6.80
2022-10-01T23:22:02.284Z,8.50
2022-10-01T23:27:30.964Z,10.43
2022-10-01T23:32:54.101Z,6.35
2022-10-01T23:38:08.390Z,7.72
2022-10-01T23:43:25.788Z,9.55
2022-10-01T23:48:33.498Z,6.97
2022-10-01T23:53:45.041Z,8.80
2022-10-01T23:59:02.891Z,8.85
